Time;durP1;ratioP1;P1;durP2;ratioP2;P2;SDS_P1;SDS_P2;PMS_P1;PMS_P2;Temp;Humidity;BMP_temperature;BMP_pressure;BME280_temperature;BME280_humidity;BME280_pressure;Samples;Min_cycle;Max_cycle;Signal;HPM_P1;HPM_P2
2022/06/09 00:01:07;;;;;;;6.05;0.20;;;25.70;44.80;;;;;;5091099;28;20044;-67
2022/06/09 00:03:38;;;;;;;0.85;0.40;;;25.70;44.70;;;;;;5098470;28;20075;-66
2022/06/09 00:06:09;;;;;;;2.55;0.30;;;25.60;44.70;;;;;;5094763;28;20140;-66
2022/06/09 00:08:38;;;;;;;5.22;0.30;;;25.60;44.60;;;;;;5094993;28;20139;-67
2022/06/09 00:11:08;;;;;;;3.30;0.55;;;25.60;44.60;;;;;;5098011;28;23577;-69
2022/06/09 00:13:38;;;;;;;2.47;0.38;;;25.60;44.60;;;;;;5096059;28;20155;-67
2022/06/09 00:16:05;;;;;;;2.88;0.10;;;25.60;44.60;;;;;;5107800;27;20038;-69
2022/06/09 00:18:33;;;;;;;1.77;0.32;;;25.50;44.50;;;;;;5096550;27;20135;-68
2022/06/09 00:21:01;;;;;;;0.17;0.10;;;25.50;44.50;;;;;;5102812;28;20093;-69
2022/06/09 00:23:28;;;;;;;3.42;0.43;;;25.50;44.60;;;;;;5106453;28;20044;-68
2022/06/09 00:25:55;;;;;;;1.27;0.10;;;25.60;44.60;;;;;;5097293;28;20047;-68
2022/06/09 00:28:24;;;;;;;5.20;0.20;;;25.50;44.60;;;;;;5095544;28;20126;-68
2022/06/09 00:30:51;;;;;;;0.60;0.40;;;25.50;44.50;;;;;;5096791;28;20040;-71
2022/06/09 00:33:18;;;;;;;4.35;0.22;;;25.50;44.50;;;;;;5100190;28;20043;-71
2022/06/09 00:35:46;;;;;;;0.32;0.32;;;25.50;44.50;;;;;;5095332;28;20396;-72
2022/06/09 00:38:13;;;;;;;1.95;0.38;;;25.50;44.50;;;;;;5090783;27;20805;-70
2022/06/09 00:40:40;;;;;;;2.70;0.20;;;25.50;44.50;;;;;;5095152;28;20104;-71
2022/06/09 00:43:08;;;;;;;3.67;0.10;;;25.40;44.50;;;;;;5098242;28;20054;-71
2022/06/09 00:45:38;;;;;;;2.67;0.10;;;25.40;44.50;;;;;;5094987;28;20052;-70
2022/06/09 00:48:37;;;;;;;2.50;0.30;;;25.40;44.50;;;;;;5096960;28;20093;-71
2022/06/09 00:51:16;;;;;;;4.47;0.10;;;25.40;44.40;;;;;;5095776;28;20552;-71
2022/06/09 00:53:44;;;;;;;2.58;0.10;;;25.40;44.50;;;;;;5105208;28;20031;-71
2022/06/09 00:56:14;;;;;;;3.25;0.22;;;25.40;44.50;;;;;;5089968;28;20032;-70
2022/06/09 00:58:47;;;;;;;2.10;0.20;;;25.40;44.50;;;;;;5094656;28;20036;-71
2022/06/09 01:01:18;;;;;;;1.33;0.30;;;25.30;44.50;;;;;;5101009;28;20481;-68
2022/06/09 01:03:51;;;;;;;2.58;0.17;;;25.40;44.50;;;;;;5093045;28;20044;-68
2022/06/09 01:06:21;;;;;;;1.25;0.20;;;25.40;44.50;;;;;;5096735;28;20149;-67
2022/06/09 01:08:54;;;;;;;6.55;0.30;;;25.30;44.50;;;;;;5093855;28;20070;-68
2022/06/09 01:11:22;;;;;;;3.45;0.20;;;25.30;44.50;;;;;;5089620;28;20545;-69
2022/06/09 01:13:49;;;;;;;0.82;0.10;;;25.30;44.50;;;;;;5093069;28;20036;-68
2022/06/09 01:16:24;;;;;;;2.00;0.20;;;25.30;44.50;;;;;;5094439;28;20040;-68
2022/06/09 01:19:00;;;;;;;3.92;0.43;;;25.30;44.50;;;;;;5100671;28;20096;-63
2022/06/09 01:22:09;;;;;;;1.10;0.10;;;25.30;44.60;;;;;;5101001;28;20511;-69
2022/06/09 01:24:52;;;;;;;2.15;0.35;;;25.30;44.50;;;;;;5091867;28;20128;-68
2022/06/09 01:27:40;;;;;;;3.10;0.10;;;25.30;44.60;;;;;;5095493;28;20040;-67
2022/06/09 01:30:15;;;;;;;2.97;0.30;;;25.30;44.60;;;;;;5081173;28;20547;-68
2022/06/09 01:32:49;;;;;;;3.30;0.10;;;25.30;44.60;;;;;;5090851;28;20055;-68
2022/06/09 01:35:24;;;;;;;2.13;0.45;;;25.30;44.60;;;;;;5088295;28;20074;-68
2022/06/09 01:37:55;;;;;;;3.63;0.10;;;25.30;44.60;;;;;;5095375;28;20426;-67
2022/06/09 01:40:23;;;;;;;2.58;0.50;;;25.20;44.50;;;;;;5092093;28;20083;-68
2022/06/09 01:42:54;;;;;;;4.95;0.60;;;25.20;44.50;;;;;;5097589;28;20039;-67
2022/06/09 01:45:25;;;;;;;0.60;0.43;;;25.20;44.60;;;;;;5097141;28;20499;-67
2022/06/09 01:48:00;;;;;;;6.93;0.57;;;25.20;44.50;;;;;;5101881;28;20178;-68
2022/06/09 01:50:33;;;;;;;3.15;0.10;;;25.20;44.50;;;;;;5098514;28;20066;-67
2022/06/09 01:53:04;;;;;;;0.95;0.25;;;25.20;44.60;;;;;;5102320;27;20128;-67
2022/06/09 01:55:33;;;;;;;1.77;0.10;;;25.20;44.60;;;;;;5093562;28;20489;-67
2022/06/09 01:58:04;;;;;;;3.95;0.43;;;25.20;44.60;;;;;;5100820;28;20038;-67
2022/06/09 02:00:32;;;;;;;3.60;1.00;;;25.20;44.60;;;;;;5097164;28;20035;-69
2022/06/09 02:03:04;;;;;;;1.92;0.17;;;25.20;44.60;;;;;;5102468;28;20040;-69
2022/06/09 02:05:37;;;;;;;2.83;0.50;;;25.20;44.60;;;;;;5093436;28;20121;-64
2022/06/09 02:08:07;;;;;;;2.13;0.30;;;25.20;44.70;;;;;;5091372;28;22908;-68
2022/06/09 02:10:37;;;;;;;0.38;0.10;;;25.20;44.70;;;;;;5099488;28;20051;-69
2022/06/09 02:13:08;;;;;;;0.47;0.10;;;25.10;44.60;;;;;;5094224;28;20055;-68
2022/06/09 02:15:38;;;;;;;3.80;0.43;;;25.10;44.60;;;;;;5096162;28;20138;-68
2022/06/09 02:18:10;;;;;;;6.00;0.57;;;25.10;44.60;;;;;;5098197;28;20097;-68
2022/06/09 02:20:42;;;;;;;2.92;0.45;;;25.10;44.60;;;;;;5083575;28;20139;-68
2022/06/09 02:23:10;;;;;;;3.88;0.30;;;25.10;44.60;;;;;;5103239;28;20086;-67
2022/06/09 02:25:37;;;;;;;1.88;0.32;;;25.10;44.60;;;;;;5097600;28;20040;-67
2022/06/09 02:28:05;;;;;;;2.28;0.30;;;25.10;44.60;;;;;;5102910;28;20381;-68
2022/06/09 02:30:32;;;;;;;4.72;0.55;;;25.10;44.60;;;;;;5096362;28;20044;-68
2022/06/09 02:32:59;;;;;;;3.72;0.50;;;25.10;44.60;;;;;;5091887;28;20036;-67
2022/06/09 02:35:28;;;;;;;1.88;0.30;;;25.00;44.40;;;;;;5099611;28;20038;-68
2022/06/09 02:37:55;;;;;;;1.55;0.13;;;25.10;44.50;;;;;;5090666;28;20802;-68
2022/06/09 02:40:23;;;;;;;0.88;0.15;;;25.10;44.50;;;;;;5095327;28;20035;-69
2022/06/09 02:42:50;;;;;;;2.45;0.45;;;25.10;44.60;;;;;;5095011;28;20040;-68
2022/06/09 02:45:17;;;;;;;1.27;0.30;;;25.00;44.50;;;;;;5096207;28;20031;-68
2022/06/09 02:47:45;;;;;;;1.58;0.15;;;25.00;44.50;;;;;;5093371;28;20326;-68
2022/06/09 02:50:12;;;;;;;3.78;0.45;;;25.00;44.50;;;;;;5090563;28;20036;-68
2022/06/09 02:52:41;;;;;;;6.40;0.68;;;25.00;44.50;;;;;;5101839;28;20039;-66
2022/06/09 02:55:09;;;;;;;3.13;0.10;;;25.00;44.50;;;;;;5102767;28;20086;-67
2022/06/09 02:57:37;;;;;;;2.33;0.60;;;25.00;44.50;;;;;;5097170;28;20044;-67
2022/06/09 03:00:07;;;;;;;3.45;0.20;;;25.00;44.60;;;;;;5093518;28;20036;-66
2022/06/09 03:02:34;;;;;;;6.20;0.17;;;25.00;44.60;;;;;;5092227;28;20044;-67
2022/06/09 03:05:01;;;;;;;3.20;0.38;;;25.00;44.60;;;;;;5089447;28;20040;-66
2022/06/09 03:07:28;;;;;;;4.97;0.10;;;25.00;44.50;;;;;;5096053;28;20075;-66
2022/06/09 03:09:57;;;;;;;1.25;0.22;;;24.90;44.40;;;;;;5096071;28;20044;-66
2022/06/09 03:12:24;;;;;;;4.70;1.17;;;25.00;44.50;;;;;;5091450;28;20035;-66
2022/06/09 03:14:51;;;;;;;5.80;0.55;;;24.90;44.40;;;;;;5091474;28;20040;-66
2022/06/09 03:17:18;;;;;;;2.42;0.13;;;24.90;44.40;;;;;;5090165;28;20079;-67
2022/06/09 03:19:45;;;;;;;5.32;0.20;;;24.90;44.40;;;;;;5106719;28;20085;-65
2022/06/09 03:22:13;;;;;;;2.92;0.25;;;24.90;44.40;;;;;;5106224;28;20040;-68
2022/06/09 03:24:40;;;;;;;2.53;0.10;;;24.90;45.00;;;;;;5099388;28;20032;-65
2022/06/09 03:27:09;;;;;;;1.30;0.30;;;24.90;44.40;;;;;;5096859;28;20067;-65
2022/06/09 03:29:36;;;;;;;3.10;0.30;;;24.90;44.40;;;;;;5096721;28;20339;-65
2022/06/09 03:32:03;;;;;;;3.70;0.20;;;24.90;44.40;;;;;;5102612;27;20039;-65
2022/06/09 03:34:30;;;;;;;2.30;0.10;;;24.90;44.40;;;;;;5106834;28;20032;-66
2022/06/09 03:36:57;;;;;;;7.30;0.52;;;24.90;44.40;;;;;;5100916;28;20131;-66
2022/06/09 03:39:24;;;;;;;2.17;0.60;;;24.90;44.50;;;;;;5081993;28;20531;-66
2022/06/09 03:41:51;;;;;;;2.67;0.90;;;24.90;44.40;;;;;;5094469;28;20127;-66
2022/06/09 03:44:20;;;;;;;4.80;0.30;;;24.90;44.50;;;;;;5097377;28;20032;-65
2022/06/09 03:46:47;;;;;;;8.23;0.73;;;24.90;44.50;;;;;;5108738;28;20127;-66
2022/06/09 03:49:14;;;;;;;5.05;0.38;;;24.90;44.50;;;;;;5093709;28;20119;-66
2022/06/09 03:51:41;;;;;;;1.80;0.10;;;24.90;44.50;;;;;;5102913;27;20120;-66
2022/06/09 03:54:08;;;;;;;3.28;0.25;;;24.90;44.50;;;;;;5099727;27;20046;-69
2022/06/09 03:56:36;;;;;;;3.92;0.47;;;24.80;44.50;;;;;;5093647;28;23497;-67
2022/06/09 03:59:03;;;;;;;7.57;0.60;;;24.80;44.50;;;;;;5093373;28;20330;-66
2022/06/09 04:01:31;;;;;;;2.70;0.20;;;24.80;44.50;;;;;;5088433;28;20040;-67
2022/06/09 04:03:59;;;;;;;3.75;0.40;;;24.80;44.60;;;;;;5094405;28;20040;-65
2022/06/09 04:06:27;;;;;;;1.88;0.20;;;24.80;44.60;;;;;;5097965;28;20515;-66
2022/06/09 04:08:54;;;;;;;2.63;0.10;;;24.80;44.70;;;;;;5098689;28;20054;-66
2022/06/09 04:11:23;;;;;;;3.40;0.20;;;24.80;44.70;;;;;;5095766;28;20040;-67
2022/06/09 04:13:50;;;;;;;7.10;0.40;;;24.80;44.70;;;;;;5078968;28;20103;-66
2022/06/09 04:16:22;;;;;;;1.67;0.30;;;24.80;44.70;;;;;;5083698;28;20064;-66
2022/06/09 04:18:51;;;;;;;3.67;0.30;;;24.80;44.70;;;;;;5099353;28;20047;-67
2022/06/09 04:21:18;;;;;;;1.13;0.22;;;24.80;44.70;;;;;;5101398;28;20887;-66
2022/06/09 04:23:45;;;;;;;3.53;0.70;;;24.80;44.70;;;;;;5105303;28;20044;-66
2022/06/09 04:26:16;;;;;;;4.85;0.45;;;24.80;44.80;;;;;;5093384;28;20040;-66
2022/06/09 04:28:43;;;;;;;2.25;0.43;;;24.80;44.70;;;;;;5097670;28;20393;-66
2022/06/09 04:31:11;;;;;;;8.38;0.50;;;24.70;44.70;;;;;;5106569;28;20525;-66
2022/06/09 04:33:38;;;;;;;5.13;0.28;;;24.70;44.70;;;;;;5102124;28;20052;-67
2022/06/09 04:36:08;;;;;;;3.63;0.35;;;24.70;44.70;;;;;;5078374;28;20044;-67
2022/06/09 04:38:36;;;;;;;6.07;0.40;;;24.70;44.70;;;;;;5095899;28;20507;-67
2022/06/09 04:41:04;;;;;;;2.20;0.40;;;24.70;44.70;;;;;;5075110;28;20775;-67
2022/06/09 04:43:31;;;;;;;5.10;0.22;;;24.70;44.70;;;;;;5096900;28;20139;-66
2022/06/09 04:45:58;;;;;;;2.20;0.30;;;24.70;44.70;;;;;;5100459;28;20044;-66
2022/06/09 04:48:25;;;;;;;6.03;0.45;;;24.70;44.70;;;;;;5093321;28;20040;-65
2022/06/09 04:50:52;;;;;;;1.92;0.55;;;24.70;44.70;;;;;;5094158;28;20039;-65
2022/06/09 04:53:21;;;;;;;5.80;0.57;;;24.70;44.80;;;;;;5105519;28;20093;-66
2022/06/09 04:55:48;;;;;;;4.38;0.28;;;24.70;44.80;;;;;;5108411;28;20039;-65
2022/06/09 04:58:14;;;;;;;6.13;0.28;;;24.70;44.80;;;;;;5098074;28;20048;-65
2022/06/09 05:00:42;;;;;;;3.60;0.55;;;24.70;44.90;;;;;;5098285;28;20039;-66
2022/06/09 05:03:12;;;;;;;2.20;0.20;;;24.80;45.00;;;;;;5093415;28;20109;-65
2022/06/09 05:05:42;;;;;;;3.05;0.82;;;24.70;44.90;;;;;;5088842;28;20130;-65
2022/06/09 05:08:10;;;;;;;1.50;0.10;;;24.80;45.00;;;;;;5104348;28;20048;-65
2022/06/09 05:10:38;;;;;;;4.72;0.68;;;24.80;45.00;;;;;;5099576;28;20052;-65
2022/06/09 05:13:06;;;;;;;3.65;0.40;;;24.80;45.00;;;;;;5093084;28;20047;-65
2022/06/09 05:15:36;;;;;;;4.20;0.30;;;24.80;45.10;;;;;;5096570;28;20126;-64
2022/06/09 05:18:04;;;;;;;0.75;0.17;;;24.80;45.10;;;;;;5096950;28;20042;-68
2022/06/09 05:20:32;;;;;;;1.15;0.10;;;24.80;45.10;;;;;;5097320;28;20055;-69
2022/06/09 05:22:59;;;;;;;2.40;0.30;;;24.80;45.20;;;;;;5105916;28;20828;-68
2022/06/09 05:25:26;;;;;;;0.55;0.20;;;24.80;45.20;;;;;;5082074;28;20075;-67
2022/06/09 05:27:54;;;;;;;2.70;0.20;;;24.80;45.20;;;;;;5099977;28;20040;-67
2022/06/09 05:30:24;;;;;;;1.30;0.15;;;24.80;45.20;;;;;;5093242;28;20071;-67
2022/06/09 05:32:52;;;;;;;3.42;0.25;;;24.90;45.30;;;;;;5092859;28;20050;-67
2022/06/09 05:35:21;;;;;;;2.33;0.25;;;24.90;45.30;;;;;;5098289;28;20051;-68
2022/06/09 05:46:07;;;;;;;4.10;0.63;;;24.90;45.30;;;;;;5099371;28;20055;-67
2022/06/09 05:48:34;;;;;;;3.40;0.25;;;24.90;45.30;;;;;;5092758;28;20081;-67
2022/06/09 05:51:02;;;;;;;3.67;0.70;;;24.90;45.30;;;;;;5094854;28;20054;-66
2022/06/09 05:53:30;;;;;;;1.75;0.20;;;24.90;45.30;;;;;;5101928;28;20036;-67
2022/06/09 05:55:57;;;;;;;2.40;0.32;;;25.00;45.30;;;;;;5095267;28;20062;-67
2022/06/09 05:58:25;;;;;;;3.05;0.40;;;25.00;45.20;;;;;;5101457;28;20042;-67
2022/06/09 06:00:53;;;;;;;2.35;0.50;;;25.00;45.20;;;;;;5096219;28;20048;-66
2022/06/09 06:03:20;;;;;;;2.08;0.20;;;25.00;45.20;;;;;;5076561;28;20039;-66
2022/06/09 06:08:33;;;;;;;2.83;0.28;;;25.10;45.20;;;;;;5089934;28;20164;-66
2022/06/09 06:11:00;;;;;;;5.63;0.40;;;25.10;45.20;;;;;;5092871;28;20044;-68
2022/06/09 06:13:28;;;;;;;1.48;0.20;;;25.10;45.10;;;;;;5106777;28;20136;-66
2022/06/09 06:15:55;;;;;;;4.03;0.32;;;25.10;45.10;;;;;;5091043;28;20039;-66
2022/06/09 06:18:24;;;;;;;2.03;0.20;;;25.10;45.10;;;;;;5103183;28;20122;-65
2022/06/09 06:20:53;;;;;;;1.33;0.28;;;25.20;45.20;;;;;;5094991;28;20040;-66
2022/06/09 06:23:20;;;;;;;2.63;0.45;;;25.20;45.20;;;;;;5100394;28;20131;-66
2022/06/09 06:25:48;;;;;;;3.30;0.45;;;25.20;45.10;;;;;;5097054;28;20503;-68
2022/06/09 06:28:15;;;;;;;4.97;0.95;;;25.20;45.10;;;;;;5101994;28;20048;-63
2022/06/09 06:30:44;;;;;;;3.30;0.15;;;25.20;45.20;;;;;;5095694;28;20063;-62
2022/06/09 06:33:11;;;;;;;3.65;0.35;;;25.20;45.30;;;;;;5096248;28;20130;-64
2022/06/09 06:35:38;;;;;;;6.40;0.80;;;25.20;45.50;;;;;;5097105;28;20085;-64
2022/06/09 06:38:05;;;;;;;19.92;0.85;;;25.20;45.60;;;;;;5095894;28;20040;-65
2022/06/09 06:40:33;;;;;;;21.35;0.90;;;25.30;45.90;;;;;;5099916;28;20040;-59
2022/06/09 06:43:00;;;;;;;14.77;1.27;;;25.30;46.00;;;;;;5094315;28;20843;-61
2022/06/09 06:45:27;;;;;;;11.95;1.17;;;25.30;46.10;;;;;;5097162;28;20035;-65
2022/06/09 06:47:57;;;;;;;19.80;1.45;;;25.30;46.10;;;;;;5091639;28;20035;-59
2022/06/09 06:50:26;;;;;;;16.02;2.88;;;25.30;46.00;;;;;;5101774;28;20032;-59
2022/06/09 06:52:53;;;;;;;9.82;1.25;;;25.30;46.00;;;;;;5082212;28;20046;-61
2022/06/09 06:55:22;;;;;;;11.90;1.55;;;25.40;46.00;;;;;;5103042;28;20779;-61
2022/06/09 06:57:50;;;;;;;12.40;0.95;;;25.40;46.10;;;;;;5103748;28;20050;-61
2022/06/09 07:00:21;;;;;;;8.30;1.50;;;25.40;46.00;;;;;;5106224;28;20055;-58
2022/06/09 07:02:48;;;;;;;4.47;0.65;;;25.50;46.00;;;;;;5096924;28;20734;-61
2022/06/09 07:05:18;;;;;;;14.63;0.60;;;25.40;45.80;;;;;;5090665;28;20432;-61
2022/06/09 07:07:45;;;;;;;15.10;1.15;;;25.40;45.80;;;;;;5092744;28;20044;-61
2022/06/09 07:10:14;;;;;;;7.25;0.57;;;25.40;45.70;;;;;;5100916;28;20052;-59
2022/06/09 07:12:41;;;;;;;4.60;0.80;;;25.50;45.80;;;;;;5102047;28;20047;-62
2022/06/09 07:15:12;;;;;;;0.90;0.57;;;25.50;45.70;;;;;;5097834;28;20031;-61
2022/06/09 07:17:39;;;;;;;10.50;0.50;;;25.60;45.70;;;;;;5093399;28;20052;-60
2022/06/09 07:20:07;;;;;;;3.22;0.32;;;25.60;45.60;;;;;;5099333;28;20511;-59
2022/06/09 07:22:36;;;;;;;7.32;0.70;;;25.60;45.60;;;;;;5110848;28;20039;-62
2022/06/09 07:25:03;;;;;;;7.38;0.70;;;25.60;45.50;;;;;;5098580;28;20051;-62
2022/06/09 07:27:31;;;;;;;9.52;1.25;;;25.60;45.50;;;;;;5100108;28;20039;-59
2022/06/09 07:29:58;;;;;;;5.93;0.43;;;25.70;45.50;;;;;;5094715;28;20040;-59
2022/06/09 07:32:25;;;;;;;13.00;1.92;;;25.70;45.40;;;;;;5091478;28;20044;-59
2022/06/09 07:34:52;;;;;;;4.30;0.40;;;25.70;45.30;;;;;;5097202;28;20432;-58
2022/06/09 07:37:19;;;;;;;6.30;0.45;;;25.70;45.20;;;;;;5101394;28;20140;-59
2022/06/09 07:39:48;;;;;;;4.78;0.75;;;25.70;45.10;;;;;;5097959;28;20068;-60
2022/06/09 07:42:15;;;;;;;8.25;0.30;;;25.70;45.10;;;;;;5097278;28;20837;-59
2022/06/09 07:44:42;;;;;;;6.25;0.50;;;25.70;45.10;;;;;;5093323;28;20535;-61
2022/06/09 07:47:09;;;;;;;8.85;1.20;;;25.70;45.10;;;;;;5095634;28;20109;-59
2022/06/09 07:49:36;;;;;;;6.05;0.77;;;25.80;45.00;;;;;;5096791;28;20050;-59
2022/06/09 07:52:04;;;;;;;2.60;0.22;;;25.80;45.00;;;;;;5104715;28;20116;-62
2022/06/09 07:54:31;;;;;;;9.13;1.42;;;25.80;44.90;;;;;;5101177;28;20042;-61
2022/06/09 07:56:59;;;;;;;9.70;0.25;;;25.80;44.90;;;;;;5094054;28;20119;-61
2022/06/09 07:59:27;;;;;;;8.55;0.47;;;25.80;44.80;;;;;;5091226;28;20040;-62
2022/06/09 08:01:54;;;;;;;3.75;0.40;;;25.80;44.90;;;;;;5089680;28;20060;-60
2022/06/09 08:04:21;;;;;;;4.10;0.70;;;25.80;44.80;;;;;;5097014;28;20040;-61
2022/06/09 08:06:48;;;;;;;2.75;0.20;;;25.80;44.80;;;;;;5097320;28;20048;-61
2022/06/09 08:09:16;;;;;;;5.88;0.50;;;25.80;44.80;;;;;;5097598;28;20640;-61
2022/06/09 08:11:44;;;;;;;6.18;0.88;;;25.80;44.80;;;;;;5093504;27;20063;-61
2022/06/09 08:14:12;;;;;;;4.03;0.50;;;25.90;44.90;;;;;;5096675;28;20044;-62
2022/06/09 08:16:40;;;;;;;7.95;1.30;;;25.90;44.90;;;;;;5095227;28;20151;-59
2022/06/09 08:19:07;;;;;;;3.17;1.23;;;25.90;44.80;;;;;;5100452;28;20708;-61
2022/06/09 08:21:35;;;;;;;4.43;0.20;;;25.90;44.80;;;;;;5099978;28;20119;-60
2022/06/09 08:24:02;;;;;;;4.60;0.63;;;25.90;44.80;;;;;;5104733;28;20043;-60
2022/06/09 08:26:29;;;;;;;5.28;0.52;;;25.90;44.80;;;;;;5091431;28;20048;-60
2022/06/09 08:28:56;;;;;;;4.55;0.82;;;26.00;44.80;;;;;;5096867;28;20411;-61
2022/06/09 08:31:24;;;;;;;6.32;0.57;;;26.00;44.80;;;;;;5097041;28;20419;-61
2022/06/09 08:33:51;;;;;;;4.50;0.43;;;26.00;44.70;;;;;;5095793;28;20048;-62
2022/06/09 08:36:18;;;;;;;4.80;0.32;;;26.00;44.70;;;;;;5097333;28;20124;-60
2022/06/09 08:38:46;;;;;;;9.93;0.93;;;26.00;44.70;;;;;;5094604;28;20032;-61
2022/06/09 08:41:29;;;;;;;6.60;0.30;;;26.00;44.70;;;;;;5089309;28;20552;-61
2022/06/09 08:44:04;;;;;;;3.05;0.68;;;26.00;44.70;;;;;;5092941;28;20048;-61
2022/06/09 08:46:44;;;;;;;2.47;0.65;;;26.00;44.70;;;;;;5098439;28;20075;-61
2022/06/09 08:49:44;;;;;;;5.57;0.30;;;26.00;44.70;;;;;;5093166;28;20039;-62
2022/06/09 08:52:18;;;;;;;6.25;0.20;;;26.10;44.70;;;;;;5098752;28;20074;-62
2022/06/09 08:54:47;;;;;;;4.07;0.30;;;26.00;44.70;;;;;;5101450;28;20138;-61
2022/06/09 08:57:18;;;;;;;2.47;0.50;;;26.00;44.60;;;;;;5091135;28;20039;-59
2022/06/09 08:59:54;;;;;;;1.42;0.10;;;26.10;44.70;;;;;;5099947;28;20122;-60
2022/06/09 09:02:32;;;;;;;;;;;26.10;44.60;;;;;;5092429;28;20120;-59
2022/06/09 09:05:11;;;;;;;6.10;0.70;;;26.00;45.20;;;;;;5099969;28;19919;-59
2022/06/09 09:07:43;;;;;;;4.50;0.15;;;26.00;44.70;;;;;;5100875;28;20868;-59
2022/06/09 09:10:20;;;;;;;0.85;0.17;;;26.00;44.60;;;;;;5107578;28;20052;-59
2022/06/09 09:12:58;;;;;;;1.23;0.28;;;26.10;44.60;;;;;;5103547;28;20044;-59
2022/06/09 09:15:30;;;;;;;5.40;0.95;;;26.10;44.60;;;;;;5094276;28;20031;-61
2022/06/09 09:18:19;;;;;;;1.52;0.60;;;26.10;44.60;;;;;;5106421;28;20043;-59
2022/06/09 09:20:54;;;;;;;3.28;0.45;;;26.20;44.50;;;;;;5096427;28;20028;-59
2022/06/09 09:23:30;;;;;;;2.33;0.10;;;26.20;44.50;;;;;;5071779;28;20094;-59
2022/06/09 09:26:07;;;;;;;6.88;1.95;;;26.20;44.50;;;;;;5097584;28;20048;-60
2022/06/09 09:28:45;;;;;;;3.28;0.10;;;26.20;44.50;;;;;;5094679;28;20064;-60
2022/06/09 09:31:22;;;;;;;2.03;0.20;;;26.30;44.40;;;;;;5092490;28;20120;-59
2022/06/09 09:33:51;;;;;;;1.75;0.77;;;26.20;44.30;;;;;;5099096;28;20048;-59
2022/06/09 09:36:22;;;;;;;5.93;1.85;;;26.30;44.30;;;;;;5092952;28;20512;-59
2022/06/09 09:38:55;;;;;;;1.88;0.55;;;26.30;44.30;;;;;;5092126;28;20092;-59
2022/06/09 09:41:33;;;;;;;1.02;0.80;;;26.30;44.20;;;;;;5098740;28;20117;-59
2022/06/09 09:44:01;;;;;;;1.83;0.20;;;26.30;44.20;;;;;;5090334;28;20467;-59
2022/06/09 09:46:32;;;;;;;3.85;0.40;;;26.30;44.20;;;;;;5092017;28;20044;-61
2022/06/09 09:49:15;;;;;;;2.40;0.20;;;26.30;44.20;;;;;;5098179;28;20052;-60
2022/06/09 09:51:43;;;;;;;3.33;0.22;;;26.40;44.20;;;;;;5098876;28;20046;-60
2022/06/09 09:54:20;;;;;;;3.72;0.40;;;26.40;44.10;;;;;;5103598;28;20040;-60
2022/06/09 09:56:47;;;;;;;4.45;0.50;;;26.40;44.10;;;;;;5103391;28;20511;-60
2022/06/09 09:59:21;;;;;;;1.48;0.10;;;26.40;44.00;;;;;;5103207;27;20054;-60
2022/06/09 10:10:14;;;;;;;1.33;0.20;;;26.40;43.90;;;;;;5102300;28;20044;-60
2022/06/09 10:12:43;;;;;;;6.55;0.40;;;26.50;44.00;;;;;;5101237;28;21393;-60
2022/06/09 10:15:17;;;;;;;4.22;0.30;;;26.50;43.90;;;;;;5103868;28;20044;-59
2022/06/09 10:17:54;;;;;;;0.82;0.20;;;26.50;43.90;;;;;;5103669;28;20043;-60
2022/06/09 10:20:30;;;;;;;1.00;0.47;;;26.60;43.90;;;;;;5102975;28;20036;-60
2022/06/09 10:23:19;;;;;;;0.50;0.30;;;26.60;43.90;;;;;;5092205;28;20071;-59
2022/06/09 10:25:55;;;;;;;3.20;0.17;;;26.60;43.90;;;;;;5095058;28;20147;-60
2022/06/09 10:28:33;;;;;;;1.60;0.10;;;26.60;43.80;;;;;;5093959;28;20047;-59
2022/06/09 10:31:06;;;;;;;1.33;0.17;;;26.60;43.70;;;;;;5095303;28;20139;-60
2022/06/09 10:33:39;;;;;;;1.38;0.20;;;26.70;43.80;;;;;;5098334;28;20043;-59
2022/06/09 10:36:15;;;;;;;1.42;0.32;;;26.70;43.80;;;;;;5092066;28;20499;-60
2022/06/09 10:38:47;;;;;;;1.25;0.63;;;26.70;43.70;;;;;;5091372;28;20046;-60
2022/06/09 10:41:20;;;;;;;1.60;0.10;;;26.70;43.60;;;;;;5091708;28;20036;-60
2022/06/09 10:43:51;;;;;;;3.50;0.10;;;26.70;43.60;;;;;;5095488;28;20302;-59
2022/06/09 10:46:29;;;;;;;0.85;0.13;;;26.70;43.60;;;;;;5103953;28;20498;-59
2022/06/09 10:55:15;;;;;;;1.83;0.47;;;26.80;43.50;;;;;;5094720;28;20047;-59
2022/06/09 10:57:50;;;;;;;0.82;0.15;;;26.80;43.50;;;;;;5092374;28;20702;-61
2022/06/09 11:00:22;;;;;;;2.05;0.10;;;26.80;43.50;;;;;;5093945;28;20463;-59
2022/06/09 11:02:53;;;;;;;0.90;0.40;;;26.80;43.40;;;;;;5091185;28;20094;-59
2022/06/09 11:05:28;;;;;;;1.65;0.45;;;26.80;43.40;;;;;;5087289;28;20036;-61
2022/06/09 11:08:05;;;;;;;1.65;0.20;;;26.80;43.30;;;;;;5093015;28;20085;-60
2022/06/09 11:10:49;;;;;;;0.38;0.10;;;26.90;43.40;;;;;;5092669;28;20131;-60
2022/06/09 11:13:41;;;;;;;0.90;0.35;;;26.90;43.30;;;;;;5094479;28;20044;-60
2022/06/09 11:16:13;;;;;;;1.55;0.20;;;26.90;43.30;;;;;;5096970;28;20040;-60
2022/06/09 11:18:48;;;;;;;2.75;0.47;;;26.90;43.30;;;;;;5091199;28;20048;-61
2022/06/09 11:21:26;;;;;;;3.45;0.22;;;26.90;43.80;;;;;;5090632;28;20051;-59
2022/06/09 11:24:13;;;;;;;3.83;0.20;;;26.90;43.20;;;;;;5090290;28;20089;-62
2022/06/09 11:26:48;;;;;;;1.83;0.63;;;27.00;43.20;;;;;;5092613;28;20598;-59
2022/06/09 11:29:41;;;;;;;3.47;0.30;;;27.00;43.20;;;;;;5087214;28;20160;-59
2022/06/09 11:32:14;;;;;;;1.48;0.10;;;27.00;43.20;;;;;;5091601;28;20044;-62
2022/06/09 11:35:14;;;;;;;1.98;0.20;;;27.00;43.20;;;;;;5098496;28;20050;-61
2022/06/09 11:37:55;;;;;;;2.83;0.10;;;27.00;43.10;;;;;;5092738;28;20051;-61
2022/06/09 11:40:40;;;;;;;1.40;0.43;;;27.10;43.10;;;;;;5101592;28;20052;-61
2022/06/09 11:43:26;;;;;;;3.50;0.20;;;27.10;43.10;;;;;;5101276;28;20606;-59
2022/06/09 11:45:56;;;;;;;1.25;0.15;;;27.10;43.00;;;;;;5096314;28;20036;-59
2022/06/09 11:48:29;;;;;;;6.00;0.20;;;27.10;43.00;;;;;;5102515;28;20088;-61
2022/06/09 11:50:58;;;;;;;4.32;0.10;;;27.10;43.00;;;;;;5096039;28;20179;-61
2022/06/09 11:53:28;;;;;;;5.30;0.10;;;27.10;42.90;;;;;;5096639;28;20042;-62
2022/06/09 11:58:50;;;;;;;3.97;0.20;;;27.20;42.90;;;;;;5071117;27;20395;-59
2022/06/09 12:01:28;;;;;;;1.83;0.25;;;27.20;42.80;;;;;;5072016;28;20082;-59
2022/06/09 12:04:27;;;;;;;3.13;0.32;;;27.30;42.80;;;;;;5069080;28;20132;-59
2022/06/09 12:07:11;;;;;;;3.30;0.63;;;27.30;42.80;;;;;;5074345;28;20048;-58
2022/06/09 12:09:51;;;;;;;0.85;0.52;;;27.30;42.80;;;;;;5075054;28;20494;-58
2022/06/09 12:12:31;;;;;;;4.18;0.60;;;27.30;42.80;;;;;;5072893;28;20032;-59
2022/06/09 12:15:19;;;;;;;0.73;0.10;;;27.30;42.70;;;;;;5067661;28;20067;-59
2022/06/09 12:17:57;;;;;;;2.00;0.20;;;27.40;42.70;;;;;;5068835;28;20090;-60
2022/06/09 12:20:33;;;;;;;0.77;0.13;;;27.40;42.70;;;;;;5070341;28;20124;-59
2022/06/09 12:23:01;;;;;;;;;;;27.40;42.60;;;;;;5069514;28;20416;-58
2022/06/09 12:25:33;;;;;;;0.30;0.10;;;27.40;42.60;;;;;;5070569;28;20293;-59
2022/06/09 12:28:01;;;;;;;0.20;0.10;;;27.40;42.70;;;;;;5069371;28;20570;-59
2022/06/09 12:30:35;;;;;;;1.77;0.20;;;27.40;42.60;;;;;;5071495;28;20128;-59
2022/06/09 12:33:33;;;;;;;4.40;1.08;;;27.50;42.60;;;;;;5068312;28;20124;-59
2022/06/09 12:36:04;;;;;;;2.20;0.13;;;27.50;42.40;;;;;;5070471;28;20055;-59
2022/06/09 12:38:35;;;;;;;1.65;0.10;;;27.50;42.40;;;;;;5064709;28;20037;-61
2022/06/09 12:41:12;;;;;;;2.03;0.22;;;27.60;42.50;;;;;;5069379;28;20132;-59
2022/06/09 12:43:42;;;;;;;0.80;0.20;;;27.60;43.00;;;;;;5074137;28;20055;-59
2022/06/09 12:46:22;;;;;;;0.93;0.10;;;27.60;42.40;;;;;;5068781;28;20041;-59
2022/06/09 12:48:51;;;;;;;1.02;0.52;;;27.70;42.30;;;;;;5071773;28;20485;-61
2022/06/09 12:51:24;;;;;;;3.15;0.43;;;27.70;42.20;;;;;;5071419;28;20047;-59
2022/06/09 12:54:00;;;;;;;0.65;0.57;;;27.80;42.20;;;;;;5068165;28;20040;-60
2022/06/09 12:56:32;;;;;;;0.43;0.35;;;27.80;42.20;;;;;;5078512;28;20037;-60
2022/06/09 12:59:04;;;;;;;1.42;0.25;;;27.80;42.00;;;;;;5067248;28;20049;-59
2022/06/09 13:01:33;;;;;;;2.95;0.10;;;27.90;42.00;;;;;;5071005;28;20037;-59
2022/06/09 13:04:03;;;;;;;1.70;0.20;;;27.90;42.00;;;;;;5067567;28;20041;-60
2022/06/09 13:06:33;;;;;;;2.97;0.10;;;27.90;41.90;;;;;;5070952;28;20119;-59
2022/06/09 13:09:02;;;;;;;0.82;0.40;;;27.90;41.90;;;;;;5061771;28;20051;-59
2022/06/09 13:14:22;;;;;;;2.15;0.10;;;27.90;41.80;;;;;;5048719;28;20124;-59
2022/06/09 13:16:54;;;;;;;0.93;0.40;;;28.00;41.80;;;;;;5056923;28;20065;-61
2022/06/09 13:19:25;;;;;;;2.08;0.32;;;28.00;41.80;;;;;;5061720;28;20036;-59
2022/06/09 13:21:53;;;;;;;1.27;0.10;;;28.10;41.80;;;;;;5055253;28;20063;-60
2022/06/09 13:24:25;;;;;;;0.85;0.10;;;28.10;41.80;;;;;;5055989;28;20098;-59
2022/06/09 13:26:53;;;;;;;1.52;0.10;;;28.10;41.70;;;;;;5053995;28;20083;-59
2022/06/09 13:29:24;;;;;;;0.47;0.35;;;28.10;41.70;;;;;;5049376;28;20424;-60
2022/06/09 13:32:08;;;;;;;3.80;0.10;;;28.10;41.70;;;;;;5052812;28;20572;-60
2022/06/09 13:34:37;;;;;;;0.10;0.08;;;28.10;42.20;;;;;;5055799;28;20049;-59
2022/06/09 13:37:13;;;;;;;1.10;0.10;;;28.10;41.60;;;;;;5053509;28;20508;-60
2022/06/09 13:39:50;;;;;;;0.52;0.20;;;28.10;41.60;;;;;;5056418;28;20128;-59